Weather reports worldwide

Advertisment
Salsburgh, United Kingdom (99024): temperature & dewpoint: 19.01.2017 01:00:00 - 25.01.2017 01:00:00 (GMT)Salsburgh, United Kingdom (99024): wind speed & gusts: 19.01.2017 01:00:00 - 25.01.2017 01:00:00 (GMT)Salsburgh, United Kingdom (99024): wind direction: 19.01.2017 01:00:00 - 25.01.2017 01:00:00 (GMT)Salsburgh, United Kingdom (99024): precipitation: 19.01.2017 01:00:00 - 25.01.2017 01:00:00 (GMT)
Date & Time tt [°C] td [°C] ff [km/h] ff [kn] fx [km/h] fx [kn] dd rr [mm]
25.01.2017 01:00:00 8,2 7,3 37 20 50 27 SSW -
25.01.2017 00:00:00 8,1 7,1 29 16 - - S 0,0
24.01.2017 23:00:00 8,0 7,1 37 20 55 30 SSW 0,0
24.01.2017 22:00:00 7,8 7,1 37 20 50 27 S 0,0
24.01.2017 21:00:00 7,3 6,8 28 15 - - S 0,0
24.01.2017 20:00:00 7,6 7,2 31 17 - - SSW 0,0
24.01.2017 19:00:00 7,0 6,6 21 11 - - SSW 0,0
24.01.2017 18:00:00 7,0 6,7 22 12 - - S 0,0
24.01.2017 17:00:00 7,3 7,0 21 11 - - SSW 0,0
24.01.2017 16:00:00 7,5 7,1 21 11 - - SSW 0,0
24.01.2017 15:00:00 7,4 7,1 24 13 - - SSW 0,0
24.01.2017 14:00:00 7,8 7,3 28 15 - - SW 0,0
24.01.2017 13:00:00 7,6 7,2 26 14 - - SW 0,0
24.01.2017 12:00:00 7,2 7,0 28 15 - - SSW 0,0
24.01.2017 11:00:00 7,0 6,8 26 14 - - SSW 0,0
24.01.2017 10:00:00 6,8 6,4 28 15 - - SSW 0,0
24.01.2017 09:00:00 6,4 6,0 28 15 - - SSW 0,0
24.01.2017 08:00:00 6,2 5,7 28 15 - - SSW 0,0
24.01.2017 07:00:00 6,1 5,2 29 16 - - S 0,0
24.01.2017 06:00:00 6,1 4,8 24 13 48 26 S 0,0
24.01.2017 05:00:00 5,9 4,4 34 18 46 25 S 0,0
24.01.2017 04:00:00 5,6 3,7 37 20 48 26 SSW 0,0
24.01.2017 03:00:00 5,1 3,4 37 20 52 28 SSW 0,0
24.01.2017 02:00:00 4,1 3,0 29 16 - - SSW 0,0
24.01.2017 01:00:00 3,8 2,9 29 16 - - SSW 0,0
24.01.2017 00:00:00 3,1 2,5 28 15 - - SSW 0,0
23.01.2017 23:00:00 3,2 2,8 31 17 - - S 0,0
23.01.2017 22:00:00 2,7 2,4 31 17 - - S 0,0
23.01.2017 21:00:00 2,4 2,2 29 16 - - S 0,0
23.01.2017 20:00:00 2,0 1,7 26 14 - - S 0,0
23.01.2017 19:00:00 2,7 2,3 31 17 - - S 0,0
23.01.2017 18:00:00 2,3 2,2 24 13 - - S 0,0
23.01.2017 17:00:00 1,9 1,8 24 13 - - S 0,0
23.01.2017 16:00:00 2,6 2,3 24 13 - - S 0,0
23.01.2017 15:00:00 2,9 2,4 18 10 - - S 0,0
23.01.2017 14:00:00 2,5 1,9 16 9 - - S 0,0
23.01.2017 13:00:00 2,1 0,6 11 6 - - SSE 0,0
23.01.2017 12:00:00 2,1 -0,1 11 6 - - S 0,0
23.01.2017 11:00:00 1,1 -1,3 13 7 - - S 0,0
23.01.2017 10:00:00 0,1 -1,9 11 6 - - S 0,0
23.01.2017 09:00:00 -0,9 -2,3 11 6 - - S 0,0
23.01.2017 08:00:00 -1,4 -2,4 9 5 - - S 0,0
23.01.2017 07:00:00 -1,2 -2,0 9 5 - - S 0,0
23.01.2017 06:00:00 -1,2 -1,9 9 5 - - S 0,0
23.01.2017 05:00:00 -0,2 -0,7 9 5 - - S 0,0
23.01.2017 04:00:00 0,3 -0,1 11 6 - - SSW 0,0
23.01.2017 03:00:00 0,8 0,6 13 7 - - SSW 0,0
23.01.2017 02:00:00 1,0 0,9 8 4 - - SSW 0,0
23.01.2017 01:00:00 1,1 1,0 9 5 - - SW 0,0
23.01.2017 00:00:00 1,0 1,0 9 5 - - SSW 0,0
22.01.2017 23:00:00 0,9 0,9 9 5 - - SSW 0,0
22.01.2017 22:00:00 0,9 0,9 8 4 - - SSW 0,0
22.01.2017 21:00:00 0,8 0,8 8 4 - - SW 0,2
22.01.2017 20:00:00 0,9 0,9 9 5 - - SW 0,0
22.01.2017 19:00:00 0,8 0,8 11 6 - - SW 0,0
22.01.2017 18:00:00 0,8 0,8 11 6 - - SSW 0,0
22.01.2017 17:00:00 0,7 0,7 8 4 - - SSW 0,0
22.01.2017 16:00:00 0,8 0,8 15 8 - - WSW 0,0
22.01.2017 15:00:00 0,9 0,9 11 6 - - SW 0,0
22.01.2017 14:00:00 0,7 0,7 11 6 - - SW 0,0
22.01.2017 13:00:00 0,7 0,7 8 4 - - SW 0,0
22.01.2017 12:00:00 0,5 0,5 0 0 - - N 0,2
22.01.2017 11:00:00 0,0 0,0 0 0 - - N 0,0
22.01.2017 10:00:00 0,0 0,0 0 0 - - N 0,0
22.01.2017 09:00:00 -0,2 -0,2 0 0 - - N 0,0
22.01.2017 08:00:00 -0,5 -0,5 0 0 - - N 0,0
22.01.2017 07:00:00 -0,3 -0,3 0 0 - - N 0,0
22.01.2017 06:00:00 -0,3 -0,3 0 0 - - N 0,0
22.01.2017 05:00:00 -0,2 -0,2 0 0 - - N 0,0
22.01.2017 04:00:00 -0,2 -0,2 0 0 - - N 0,0
22.01.2017 03:00:00 -0,3 -0,3 0 0 - - N 0,0
22.01.2017 02:00:00 -0,5 -0,5 0 0 - - N 0,0
22.01.2017 01:00:00 -0,6 -0,6 0 0 - - N 0,0
22.01.2017 00:00:00 -0,7 -0,7 0 0 - - N 0,0
21.01.2017 23:00:00 -0,9 -0,9 4 2 - - E 0,0
21.01.2017 22:00:00 -0,4 -0,4 9 5 - - E 0,0
21.01.2017 21:00:00 0,0 0,0 13 7 - - E 0,0
21.01.2017 20:00:00 -0,2 -0,2 13 7 - - E 0,0
21.01.2017 19:00:00 -1,0 -1,0 15 8 - - E 0,0
21.01.2017 18:00:00 -1,0 -1,0 16 9 - - E 0,0
21.01.2017 17:00:00 -0,6 -0,8 13 7 - - ESE 0,0
21.01.2017 16:00:00 0,1 -0,7 11 6 - - E 0,0
21.01.2017 15:00:00 3,8 1,6 9 5 - - E 0,0
21.01.2017 14:00:00 3,6 1,4 13 7 - - ESE 0,0
21.01.2017 13:00:00 3,5 0,8 11 6 - - E 0,0
21.01.2017 12:00:00 2,5 0,4 11 6 - - E 0,0
21.01.2017 11:00:00 2,0 0,4 9 5 - - E 0,0
21.01.2017 10:00:00 1,3 -0,9 9 5 - - E 0,0
21.01.2017 09:00:00 1,6 -1,1 9 5 - - SE 0,0
21.01.2017 08:00:00 0,9 -1,0 11 6 - - SSE 0,0
21.01.2017 07:00:00 0,6 -1,4 11 6 - - S 0,0
21.01.2017 06:00:00 1,6 -0,6 9 5 - - SE 0,0
21.01.2017 05:00:00 0,7 -0,6 9 5 - - E 0,0
21.01.2017 04:00:00 0,8 -0,4 9 5 - - ESE 0,0
21.01.2017 03:00:00 0,5 -0,6 9 5 - - SSE 0,0
21.01.2017 02:00:00 0,1 -0,6 15 8 - - SSE 0,0
21.01.2017 01:00:00 0,1 -0,3 13 7 - - SSE 0,0
21.01.2017 00:00:00 0,1 -0,3 11 6 - - SSE 0,0
20.01.2017 23:00:00 0,5 0,1 11 6 - - SSE 0,0
20.01.2017 22:00:00 1,5 1,1 11 6 - - SSE 0,0
20.01.2017 21:00:00 2,8 2,7 5 3 - - SSE 0,0
20.01.2017 20:00:00 2,6 2,4 4 2 - - S 0,0
20.01.2017 19:00:00 2,6 2,4 15 8 - - S 0,0
20.01.2017 18:00:00 2,7 2,5 9 5 - - S 0,0
20.01.2017 17:00:00 2,5 2,3 8 4 - - SSW 0,0
20.01.2017 16:00:00 2,2 2,1 8 4 - - SSW 0,0
20.01.2017 15:00:00 2,0 1,9 4 2 - - S 0,0
20.01.2017 14:00:00 1,9 1,9 8 4 - - SSW 0,0
20.01.2017 13:00:00 2,3 2,3 9 5 - - S 0,0
20.01.2017 12:00:00 2,3 2,3 9 5 - - S 0,0
20.01.2017 11:00:00 2,3 2,3 15 8 - - S 0,0
20.01.2017 10:00:00 3,0 3,0 9 5 - - SSW 0,0
20.01.2017 09:00:00 3,2 3,1 9 5 - - WSW 0,0
20.01.2017 08:00:00 3,3 3,2 9 5 - - SW 0,0
20.01.2017 07:00:00 3,3 3,1 11 6 - - WSW 0,0
20.01.2017 06:00:00 3,5 3,2 9 5 - - WSW 0,0
20.01.2017 05:00:00 3,5 3,2 13 7 - - WSW 0,0
20.01.2017 04:00:00 3,5 3,2 11 6 - - WSW 0,0
20.01.2017 03:00:00 3,9 3,6 13 7 - - WSW 0,0
20.01.2017 02:00:00 4,0 3,4 13 7 - - WSW 0,0
20.01.2017 01:00:00 4,1 3,2 13 7 - - SW 0,0
20.01.2017 00:00:00 4,4 3,4 13 7 - - WSW 0,0
19.01.2017 23:00:00 4,6 3,5 15 8 - - WSW 0,0
19.01.2017 22:00:00 4,7 3,6 15 8 - - WSW 0,0
19.01.2017 21:00:00 4,7 3,7 13 7 - - WSW 0,0
19.01.2017 20:00:00 4,7 3,7 13 7 - - SW 0,0
19.01.2017 19:00:00 4,9 3,8 15 8 - - WSW 0,0
19.01.2017 18:00:00 5,0 3,9 15 8 - - WSW 0,0
19.01.2017 17:00:00 5,1 3,9 16 9 - - WSW 0,0
19.01.2017 16:00:00 5,3 4,1 15 8 - - WSW 0,0
19.01.2017 15:00:00 5,5 4,2 15 8 - - W 0,0
19.01.2017 14:00:00 5,7 4,0 21 11 - - W 0,0
19.01.2017 13:00:00 5,9 3,9 21 11 - - WSW 0,0
19.01.2017 12:00:00 6,0 4,2 18 10 - - WSW 0,0
19.01.2017 11:00:00 6,1 4,6 18 10 - - WSW 0,0
19.01.2017 10:00:00 5,9 4,2 16 9 - - WSW 0,0
19.01.2017 09:00:00 5,7 3,5 16 9 - - WSW 0,0
19.01.2017 08:00:00 5,4 3,6 16 9 - - WSW 0,0
19.01.2017 07:00:00 5,4 3,5 21 11 - - W 0,0
19.01.2017 06:00:00 5,2 3,5 18 10 - - WSW 0,0
19.01.2017 05:00:00 5,2 3,7 21 11 - - WSW 0,0
19.01.2017 04:00:00 5,3 3,8 21 11 - - WSW 0,0
19.01.2017 03:00:00 5,3 3,6 22 12 - - WSW 0,0
19.01.2017 02:00:00 5,5 3,4 24 13 - - WSW 0,0
19.01.2017 01:00:00 5,4 3,9 24 13 - - WSW 0,0

tt = temperature
td = dewpoint
ff = wind speed
fx = gusts
dd = wind direction
rr = precipitation

Next stations